Time;durP1;ratioP1;P1;durP2;ratioP2;P2;SDS_P1;SDS_P2;PMS_P1;PMS_P2;Temp;Humidity;BMP_temperature;BMP_pressure;BME280_temperature;BME280_humidity;BME280_pressure;Samples;Min_cycle;Max_cycle;Signal;HPM_P1;HPM_P2
2024/03/20 00:00:33;;;;;;;15.03;6.67;;;;;;;4.07;73.03;100556.50;123700;1099;104392;-77
2024/03/20 00:03:27;;;;;;;14.13;6.90;;;;;;;4.08;73.53;100553.08;123638;1099;105186;-77
2024/03/20 00:05:58;;;;;;;14.30;6.60;;;;;;;4.05;73.65;100563.27;123754;1098;106938;-77
2024/03/20 00:08:29;;;;;;;16.37;7.10;;;;;;;3.98;73.47;100562.00;123667;1099;104300;-76
2024/03/20 00:11:01;;;;;;;13.47;6.30;;;;;;;3.90;73.11;100556.33;123545;1098;104723;-76
2024/03/20 00:13:32;;;;;;;13.85;6.40;;;;;;;3.85;73.47;100555.14;123561;1099;104313;-76
2024/03/20 00:16:04;;;;;;;14.77;6.57;;;;;;;3.81;72.90;100554.85;123910;1099;118427;-77
2024/03/20 00:18:36;;;;;;;13.50;6.80;;;;;;;3.83;73.32;100556.72;123852;1098;104351;-76
2024/03/20 00:21:07;;;;;;;11.43;5.90;;;;;;;3.80;73.62;100558.23;123765;1098;104287;-77
2024/03/20 00:23:39;;;;;;;13.95;6.35;;;;;;;3.72;72.66;100553.44;123754;1099;104360;-77
2024/03/20 00:26:11;;;;;;;13.27;6.30;;;;;;;3.65;73.96;100550.39;123803;1099;104300;-77
2024/03/20 00:28:43;;;;;;;16.85;7.10;;;;;;;3.59;73.74;100551.77;123698;1099;104223;-77
2024/03/20 00:31:14;;;;;;;13.83;7.07;;;;;;;3.52;73.32;100552.19;123613;1099;104383;-77
2024/03/20 00:33:46;;;;;;;14.13;6.80;;;;;;;3.46;73.64;100548.28;124004;1099;104310;-77
2024/03/20 00:36:17;;;;;;;13.97;6.33;;;;;;;3.40;74.15;100546.20;123934;1099;104271;-77
2024/03/20 00:38:48;;;;;;;14.17;6.80;;;;;;;3.36;74.05;100552.87;123783;1099;104283;-77
2024/03/20 00:41:20;;;;;;;14.10;7.10;;;;;;;3.33;74.80;100556.97;123875;1099;104277;-77
2024/03/20 00:43:51;;;;;;;15.77;6.90;;;;;;;3.30;74.95;100561.95;123765;1099;104309;-77
2024/03/20 00:46:22;;;;;;;14.33;7.20;;;;;;;3.30;75.34;100564.55;123818;1098;104332;-76
2024/03/20 00:48:53;;;;;;;16.40;7.37;;;;;;;3.31;75.01;100563.77;123773;1098;104329;-77
2024/03/20 00:51:25;;;;;;;13.97;6.93;;;;;;;3.33;75.56;100565.64;123943;1099;104328;-77
2024/03/20 00:53:56;;;;;;;15.03;7.17;;;;;;;3.37;75.86;100570.23;123684;1099;104308;-77
2024/03/20 00:56:27;;;;;;;15.03;7.30;;;;;;;3.32;75.45;100568.13;123694;1099;104251;-77
2024/03/20 00:58:59;;;;;;;15.57;7.47;;;;;;;3.27;75.30;100573.02;123824;1099;104278;-77
2024/03/20 01:01:30;;;;;;;16.10;7.87;;;;;;;3.24;75.70;100571.14;123617;1098;104294;-77
2024/03/20 01:04:02;;;;;;;16.47;7.37;;;;;;;3.26;75.50;100575.50;123698;1099;104348;-76
2024/03/20 01:06:34;;;;;;;17.27;8.13;;;;;;;3.23;75.71;100581.41;123710;1099;104459;-77
2024/03/20 01:09:05;;;;;;;16.37;7.37;;;;;;;3.25;76.33;100574.61;123867;1099;104347;-77
2024/03/20 01:11:37;;;;;;;16.63;8.03;;;;;;;3.26;76.35;100576.42;123769;1099;104226;-77
2024/03/20 01:14:08;;;;;;;15.13;7.67;;;;;;;3.24;76.01;100577.99;124044;1099;104197;-77
2024/03/20 01:16:39;;;;;;;16.80;7.90;;;;;;;3.22;76.10;100575.30;123816;1099;104271;-77
2024/03/20 01:19:11;;;;;;;16.90;8.33;;;;;;;3.25;76.10;100579.80;123731;1099;104367;-77
2024/03/20 01:21:42;;;;;;;17.30;8.30;;;;;;;3.29;76.55;100580.89;123986;1099;104191;-76
2024/03/20 01:24:13;;;;;;;18.87;9.10;;;;;;;3.23;76.45;100577.11;123755;1099;104323;-77
2024/03/20 01:26:45;;;;;;;16.00;7.83;;;;;;;3.19;76.52;100580.28;123844;1099;104297;-77
2024/03/20 01:29:16;;;;;;;17.03;8.80;;;;;;;3.18;76.93;100575.92;123803;1099;104271;-76
2024/03/20 01:31:47;;;;;;;18.20;8.37;;;;;;;3.15;76.31;100575.71;123626;1099;104313;-77
2024/03/20 01:34:18;;;;;;;17.67;8.07;;;;;;;3.13;77.18;100572.13;123531;1099;104476;-77
2024/03/20 01:36:52;;;;;;;20.10;8.87;;;;;;;3.09;76.84;100564.93;123823;1099;104317;-77
2024/03/20 01:39:23;;;;;;;18.27;8.70;;;;;;;3.15;77.27;100567.93;123834;1099;104348;-77
2024/03/20 01:41:55;;;;;;;19.10;9.20;;;;;;;3.16;77.41;100568.81;123827;1099;104245;-78
2024/03/20 01:44:26;;;;;;;19.90;9.27;;;;;;;3.19;77.67;100569.02;124033;1098;104418;-78
2024/03/20 01:46:58;;;;;;;18.43;9.13;;;;;;;3.17;77.28;100574.11;123727;1098;104200;-75
2024/03/20 01:49:29;;;;;;;20.05;9.25;;;;;;;3.17;77.89;100576.70;123610;1099;104290;-76
2024/03/20 01:52:02;;;;;;;18.40;8.97;;;;;;;3.18;77.72;100577.59;123653;1099;104294;-76
2024/03/20 01:54:34;;;;;;;18.60;8.90;;;;;;;3.17;77.49;100573.22;123545;1099;104300;-76
2024/03/20 01:57:05;;;;;;;19.13;9.10;;;;;;;3.16;77.42;100579.19;123498;1098;104305;-76
2024/03/20 01:59:37;;;;;;;17.53;8.37;;;;;;;3.15;78.14;100575.71;123453;1099;104270;-77
2024/03/20 02:02:08;;;;;;;18.70;8.87;;;;;;;3.09;78.11;100574.41;123620;1099;104316;-77
2024/03/20 02:04:40;;;;;;;17.90;8.07;;;;;;;3.03;77.65;100575.78;124148;1099;104679;-77
2024/03/20 02:07:11;;;;;;;18.83;8.97;;;;;;;3.00;78.57;100585.05;123934;1098;104271;-76
2024/03/20 02:09:42;;;;;;;18.27;8.87;;;;;;;2.98;78.26;100578.88;123644;1099;104306;-76
2024/03/20 02:12:14;;;;;;;19.17;9.27;;;;;;;2.98;77.98;100576.29;123472;1099;104836;-76
2024/03/20 02:14:45;;;;;;;18.67;9.13;;;;;;;3.00;78.60;100579.87;123534;1098;104679;-77
2024/03/20 02:17:17;;;;;;;17.80;8.70;;;;;;;3.00;78.04;100577.28;123787;1099;104268;-77
2024/03/20 02:19:48;;;;;;;19.23;9.23;;;;;;;2.98;78.67;100579.77;123638;1099;104271;-77
2024/03/20 02:22:20;;;;;;;19.93;10.00;;;;;;;2.97;78.41;100582.25;123643;1099;104328;-77
2024/03/20 02:24:51;;;;;;;19.00;9.60;;;;;;;2.96;78.82;100576.19;123809;1098;104272;-77
2024/03/20 02:27:22;;;;;;;21.77;10.67;;;;;;;2.95;78.44;100574.38;123787;1099;105586;-77
2024/03/20 02:29:53;;;;;;;21.17;10.30;;;;;;;2.94;78.46;100576.86;123539;1099;104345;-78
2024/03/20 02:32:25;;;;;;;18.30;9.10;;;;;;;2.94;78.78;100579.45;123703;1099;104277;-76
2024/03/20 02:34:56;;;;;;;19.47;9.60;;;;;;;2.93;79.08;100580.23;123673;1099;104386;-77
2024/03/20 02:37:28;;;;;;;18.50;9.10;;;;;;;2.91;79.78;100579.25;123544;1099;104409;-77
2024/03/20 02:39:59;;;;;;;20.30;9.63;;;;;;;2.90;79.57;100588.73;123629;1099;104361;-76
2024/03/20 02:42:31;;;;;;;21.47;8.93;;;;;;;2.90;79.33;100575.77;123235;1099;104342;-76
2024/03/20 02:45:03;;;;;;;20.73;9.90;;;;;;;2.92;80.26;100581.95;123736;1099;104316;-76
2024/03/20 02:47:35;;;;;;;21.00;10.13;;;;;;;2.90;79.88;100585.22;123698;1099;104795;-77
2024/03/20 02:50:07;;;;;;;18.47;8.70;;;;;;;2.87;80.08;100585.93;123661;1099;104354;-77
2024/03/20 02:52:38;;;;;;;22.90;10.53;;;;;;;2.87;79.77;100586.81;123767;1099;104220;-77
2024/03/20 02:55:11;;;;;;;19.93;9.90;;;;;;;2.85;80.30;100587.50;123965;1099;104252;-77
2024/03/20 02:57:42;;;;;;;20.60;9.90;;;;;;;2.84;80.27;100585.72;123991;1098;104272;-77
2024/03/20 03:00:17;;;;;;;20.30;9.97;;;;;;;2.84;80.90;100591.80;123642;1099;104344;-77
2024/03/20 03:02:48;;;;;;;21.23;10.83;;;;;;;2.82;81.37;100590.80;123941;1099;104232;-77
2024/03/20 03:05:20;;;;;;;22.13;9.47;;;;;;;2.78;80.55;100587.89;123493;1098;104338;-77
2024/03/20 03:07:51;;;;;;;21.03;10.20;;;;;;;2.80;80.66;100591.48;124283;1099;104245;-77
2024/03/20 03:10:24;;;;;;;22.10;10.27;;;;;;;2.80;80.87;100584.59;123960;1099;104280;-77
2024/03/20 03:12:56;;;;;;;22.73;11.27;;;;;;;2.78;80.78;100590.48;124074;1099;104271;-77
2024/03/20 03:15:27;;;;;;;21.60;10.50;;;;;;;2.79;80.68;100587.08;123682;1098;104328;-76
2024/03/20 03:18:00;;;;;;;22.67;11.33;;;;;;;2.85;81.30;100592.68;123312;1099;104719;-77
2024/03/20 03:20:31;;;;;;;21.30;10.53;;;;;;;2.79;81.28;100598.36;123572;1099;104284;-76
2024/03/20 03:23:02;;;;;;;22.83;10.57;;;;;;;2.78;80.71;100598.27;123415;1098;104361;-77
2024/03/20 03:25:34;;;;;;;23.53;11.60;;;;;;;2.76;81.87;100607.60;123733;1099;104277;-77
2024/03/20 03:28:06;;;;;;;25.23;11.70;;;;;;;2.75;81.61;100604.13;123484;1099;104325;-76
2024/03/20 03:30:37;;;;;;;24.57;12.00;;;;;;;2.70;81.85;100592.55;123749;1099;104807;-77
2024/03/20 03:33:08;;;;;;;23.33;11.20;;;;;;;2.67;81.73;100601.00;123830;1099;104759;-76
2024/03/20 03:35:39;;;;;;;24.33;12.43;;;;;;;2.69;81.46;100601.11;123869;1098;104246;-76
2024/03/20 03:38:11;;;;;;;21.87;11.63;;;;;;;2.68;81.33;100600.22;123908;1099;104319;-76
2024/03/20 03:40:43;;;;;;;21.67;10.07;;;;;;;2.69;81.88;100601.11;123629;1099;104900;-77
2024/03/20 03:43:14;;;;;;;23.05;11.30;;;;;;;2.69;81.67;100601.99;123688;1099;104298;-76
2024/03/20 03:45:46;;;;;;;23.43;10.43;;;;;;;2.66;82.56;100600.90;123772;1099;104687;-75
2024/03/20 03:48:18;;;;;;;24.43;11.27;;;;;;;2.67;83.67;100593.23;123728;1098;104261;-77
2024/03/20 03:50:52;;;;;;;23.60;11.17;;;;;;;2.66;83.18;100598.30;123603;1098;104395;-78
2024/03/20 03:53:23;;;;;;;21.13;10.73;;;;;;;2.68;83.26;100601.89;123697;1099;104276;-77
2024/03/20 03:55:55;;;;;;;22.13;10.87;;;;;;;2.71;83.20;100604.69;123697;1099;104354;-77
2024/03/20 03:58:26;;;;;;;25.10;11.80;;;;;;;2.70;82.27;100596.03;123630;1099;104392;-77
2024/03/20 04:00:57;;;;;;;23.37;11.37;;;;;;;2.71;83.30;100599.51;123590;1099;104322;-77
2024/03/20 04:03:29;;;;;;;24.17;11.27;;;;;;;2.68;82.48;100594.12;123616;1098;104232;-77
2024/03/20 04:06:03;;;;;;;24.23;11.73;;;;;;;2.69;83.34;100598.52;123776;1099;104306;-77
2024/03/20 04:08:34;;;;;;;26.90;12.73;;;;;;;2.68;84.02;100601.89;123562;1099;104431;-76
2024/03/20 04:11:07;;;;;;;21.30;10.95;;;;;;;2.65;83.22;100602.59;123655;1099;104268;-76
2024/03/20 04:13:38;;;;;;;23.83;11.20;;;;;;;2.70;83.15;100600.33;123622;1099;104267;-76
2024/03/20 04:16:09;;;;;;;20.67;10.43;;;;;;;2.72;83.16;100598.73;123663;1099;104418;-77
2024/03/20 04:18:41;;;;;;;21.77;10.13;;;;;;;2.76;83.16;100592.05;123602;1099;104389;-77
2024/03/20 04:21:12;;;;;;;24.43;11.20;;;;;;;2.78;83.17;100596.55;123609;1098;104257;-77
2024/03/20 04:23:44;;;;;;;22.20;10.50;;;;;;;2.77;83.55;100602.52;123722;1099;104384;-76
2024/03/20 04:26:15;;;;;;;22.97;11.23;;;;;;;2.78;84.64;100600.85;123817;1098;104271;-78
2024/03/20 04:28:47;;;;;;;21.23;10.43;;;;;;;2.76;84.34;100598.16;123732;1099;104272;-77
2024/03/20 04:31:18;;;;;;;21.77;10.47;;;;;;;2.77;84.06;100604.23;123794;1099;107052;-78
2024/03/20 04:33:50;;;;;;;21.30;10.25;;;;;;;2.78;84.10;100601.73;123631;1099;104219;-77
2024/03/20 04:36:22;;;;;;;19.93;9.27;;;;;;;2.80;83.80;100609.63;123777;1099;104668;-78
2024/03/20 04:38:54;;;;;;;20.87;10.37;;;;;;;2.82;84.36;100606.35;123709;1099;104238;-78
2024/03/20 04:41:25;;;;;;;21.53;10.50;;;;;;;2.83;83.90;100605.53;123816;1099;118565;-76
2024/03/20 04:43:57;;;;;;;21.95;11.30;;;;;;;2.87;85.06;100617.92;123759;1099;104351;-77
2024/03/20 04:46:28;;;;;;;22.97;11.07;;;;;;;2.85;84.16;100608.23;123777;1099;104303;-76
2024/03/20 04:48:59;;;;;;;24.93;12.87;;;;;;;2.86;84.38;100613.52;123689;1099;104422;-77
2024/03/20 04:51:30;;;;;;;27.40;13.90;;;;;;;2.87;84.96;100609.26;123538;1099;104357;-77
2024/03/20 04:54:02;;;;;;;25.57;12.77;;;;;;;2.87;84.49;100606.66;123509;1099;104349;-76
2024/03/20 04:56:33;;;;;;;26.27;13.60;;;;;;;2.90;84.49;100606.87;123446;1099;104351;-77
2024/03/20 04:59:06;;;;;;;28.73;13.60;;;;;;;2.91;85.23;100607.77;123562;1099;104342;-77
2024/03/20 05:01:37;;;;;;;25.73;13.73;;;;;;;2.92;84.58;100610.45;123639;1099;104328;-77
2024/03/20 05:04:08;;;;;;;26.27;13.90;;;;;;;2.94;85.49;100600.20;123359;1099;104246;-78
2024/03/20 05:06:40;;;;;;;28.53;15.33;;;;;;;2.93;85.78;100606.16;123614;1099;104242;-77
2024/03/20 05:09:11;;;;;;;29.67;16.30;;;;;;;2.91;85.74;100608.65;123560;1099;104428;-77
2024/03/20 05:11:42;;;;;;;30.30;17.37;;;;;;;2.91;85.35;100615.53;123852;1099;104376;-77
2024/03/20 05:14:14;;;;;;;33.87;18.30;;;;;;;2.90;85.54;100611.14;123476;1099;104367;-76
2024/03/20 05:16:46;;;;;;;34.53;19.60;;;;;;;2.90;86.09;100613.73;123626;1099;104246;-77
2024/03/20 05:19:17;;;;;;;35.30;20.10;;;;;;;2.86;85.95;100610.92;123812;1098;104297;-78
2024/03/20 05:21:48;;;;;;;34.73;19.83;;;;;;;2.87;86.98;100607.55;123744;1099;104300;-77
2024/03/20 05:24:20;;;;;;;32.87;18.10;;;;;;;2.83;87.47;100615.91;123775;1099;104277;-77
2024/03/20 05:26:51;;;;;;;31.47;18.10;;;;;;;2.85;88.03;100616.01;124313;1098;104204;-75
2024/03/20 05:29:23;;;;;;;36.07;21.53;;;;;;;2.87;87.99;100614.44;123895;1099;104315;-76
2024/03/20 05:31:54;;;;;;;38.27;21.27;;;;;;;2.87;87.11;100623.10;124066;1099;104374;-76
2024/03/20 05:34:26;;;;;;;35.60;20.90;;;;;;;2.92;87.47;100614.75;124013;1099;104316;-77
2024/03/20 05:36:57;;;;;;;33.30;19.90;;;;;;;2.94;87.62;100615.75;124061;1099;104273;-77
2024/03/20 05:39:29;;;;;;;36.60;20.37;;;;;;;2.95;87.07;100622.73;123909;1099;104267;-75
2024/03/20 05:42:04;;;;;;;31.23;18.00;;;;;;;3.01;87.94;100621.45;123966;1099;104347;-77
2024/03/20 05:44:36;;;;;;;29.77;16.80;;;;;;;3.07;88.01;100615.80;123841;1098;104325;-76
2024/03/20 05:47:08;;;;;;;33.50;17.20;;;;;;;3.13;87.86;100623.06;123701;1099;104306;-76
2024/03/20 05:49:45;;;;;;;25.87;14.47;;;;;;;3.24;88.20;100617.81;123822;1099;104367;-78
2024/03/20 05:52:16;;;;;;;23.60;13.20;;;;;;;3.28;87.78;100618.02;123983;1099;104319;-77
2024/03/20 05:54:48;;;;;;;20.93;10.93;;;;;;;3.30;87.93;100625.09;124127;1099;102041;-77
2024/03/20 05:57:20;;;;;;;21.77;10.87;;;;;;;3.30;87.73;100617.30;123936;1099;104389;-77
2024/03/20 05:59:52;;;;;;;22.87;11.27;;;;;;;3.31;87.36;100621.70;124158;1099;102159;-77
2024/03/20 06:02:23;;;;;;;20.57;11.13;;;;;;;3.35;88.01;100623.72;123951;1098;104241;-77
2024/03/20 06:04:55;;;;;;;20.03;10.00;;;;;;;3.40;88.54;100618.84;124097;1099;104264;-77
2024/03/20 06:07:27;;;;;;;16.47;8.03;;;;;;;3.39;88.59;100635.19;124527;1099;104318;-77
2024/03/20 06:09:58;;;;;;;17.40;8.53;;;;;;;3.29;88.06;100623.31;124621;1099;104166;-77
2024/03/20 06:12:30;;;;;;;14.70;6.97;;;;;;;3.34;89.33;100637.48;124551;1099;104242;-77
2024/03/20 06:15:01;;;;;;;12.67;6.50;;;;;;;3.26;89.28;100632.56;124339;1099;103642;-78
2024/03/20 06:17:34;;;;;;;14.13;7.23;;;;;;;3.22;88.51;100631.47;124356;1099;104815;-77
2024/03/20 06:20:08;;;;;;;17.13;7.50;;;;;;;3.20;88.11;100627.88;124267;1099;104393;-77
2024/03/20 06:22:40;;;;;;;14.27;7.23;;;;;;;3.21;88.92;100630.58;124273;1099;104242;-78
2024/03/20 06:25:12;;;;;;;13.27;6.73;;;;;;;3.20;88.77;100630.48;124905;1099;104936;-78
2024/03/20 06:27:44;;;;;;;15.10;7.27;;;;;;;3.18;88.87;100625.19;124690;1099;104189;-78
2024/03/20 06:30:16;;;;;;;13.00;6.50;;;;;;;3.22;88.97;100632.36;124911;1099;102878;-78
2024/03/20 06:32:49;;;;;;;13.63;6.67;;;;;;;3.28;88.97;100625.80;125050;1099;104271;-78
2024/03/20 06:35:21;;;;;;;13.50;6.43;;;;;;;3.29;89.51;100637.95;124809;1099;104194;-77
2024/03/20 06:37:54;;;;;;;13.70;6.10;;;;;;;3.32;89.42;100635.56;124953;1099;104284;-77
2024/03/20 06:40:32;;;;;;;15.03;6.70;;;;;;;3.38;89.58;100636.90;124913;1099;104242;-78
2024/03/20 06:43:05;;;;;;;12.17;5.73;;;;;;;3.38;90.29;100631.71;124632;1099;104299;-78
2024/03/20 06:45:41;;;;;;;10.97;5.50;;;;;;;3.32;90.04;100631.30;124359;1099;104281;-77
2024/03/20 06:48:12;;;;;;;10.80;5.57;;;;;;;3.32;89.27;100632.97;124095;1099;104463;-77
2024/03/20 06:50:44;;;;;;;11.10;5.13;;;;;;;3.33;89.88;100639.97;124933;1099;104290;-78
2024/03/20 06:53:16;;;;;;;10.73;5.20;;;;;;;3.35;89.46;100633.17;125165;1099;102912;-78
2024/03/20 06:55:50;;;;;;;11.07;5.20;;;;;;;3.34;89.80;100631.41;124710;1099;104248;-77
2024/03/20 06:58:22;;;;;;;8.43;4.80;;;;;;;3.30;89.41;100631.98;124679;1099;104257;-78
2024/03/20 07:00:54;;;;;;;11.65;4.70;;;;;;;3.28;89.82;100630.99;124770;1099;102442;-77
2024/03/20 07:03:33;;;;;;;9.23;4.67;;;;;;;3.27;89.96;100639.55;124542;1099;104673;-78
2024/03/20 07:06:07;;;;;;;7.90;4.30;;;;;;;3.30;90.15;100634.58;124549;1099;104249;-77
2024/03/20 07:08:38;;;;;;;7.20;3.65;;;;;;;3.32;90.65;100645.94;124751;1099;104213;-78
2024/03/20 07:11:10;;;;;;;6.43;3.50;;;;;;;3.28;90.72;100638.77;124557;1099;104220;-77
2024/03/20 07:13:47;;;;;;;5.30;3.37;;;;;;;3.32;90.58;100649.45;124842;1099;104209;-79
2024/03/20 07:16:22;;;;;;;5.33;3.30;;;;;;;3.30;90.70;100639.77;124976;1098;104365;-77
2024/03/20 07:18:53;;;;;;;7.90;3.67;;;;;;;3.28;90.66;100646.55;124779;1099;104179;-78
2024/03/20 07:21:25;;;;;;;8.83;4.17;;;;;;;3.26;90.87;100649.05;124894;1099;104264;-78
2024/03/20 07:23:57;;;;;;;5.53;3.50;;;;;;;3.27;90.55;100645.62;124920;1098;104281;-78
2024/03/20 07:26:29;;;;;;;7.57;3.93;;;;;;;3.32;90.71;100649.45;124791;1099;104238;-78
2024/03/20 07:29:15;;;;;;;9.03;4.33;;;;;;;3.36;90.56;100651.44;125004;1099;104139;-79
2024/03/20 07:31:46;;;;;;;12.87;4.73;;;;;;;3.44;91.37;100648.47;124727;1099;104220;-78
2024/03/20 07:34:19;;;;;;;13.20;5.90;;;;;;;3.51;90.62;100645.50;124596;1099;104331;-79
2024/03/20 07:36:54;;;;;;;11.93;5.70;;;;;;;3.54;91.23;100653.48;124877;1099;103274;-79
2024/03/20 07:39:26;;;;;;;;;;;;;;;3.59;91.01;100657.27;124584;1099;104370;-80
2024/03/20 07:41:58;;;;;;;8.73;4.00;;;;;;;3.66;92.04;100646.51;124664;1099;103071;-78
2024/03/20 07:44:30;;;;;;;5.10;3.43;;;;;;;3.70;91.77;100657.98;124782;1099;104227;-79
2024/03/20 07:47:03;;;;;;;5.03;3.50;;;;;;;3.78;91.96;100657.66;124688;1099;104239;-80
2024/03/20 07:49:34;;;;;;;6.50;4.10;;;;;;;3.88;91.41;100658.27;124840;1099;104162;-79
2024/03/20 07:52:07;;;;;;;5.60;3.73;;;;;;;3.94;91.90;100649.20;124768;1098;102506;-79
2024/03/20 07:54:38;;;;;;;7.70;3.97;;;;;;;3.98;92.25;100650.28;124668;1099;104270;-79
2024/03/20 07:57:18;;;;;;;8.88;4.42;;;;;;;4.07;91.90;100650.87;124608;1098;104246;-79
2024/03/20 07:59:53;;;;;;;7.83;4.30;;;;;;;4.15;91.95;100653.97;125062;1099;104670;-79
2024/03/20 08:02:25;;;;;;;7.42;4.08;;;;;;;4.11;92.16;100647.69;124482;1099;104265;-78
2024/03/20 08:04:58;;;;;;;8.80;4.47;;;;;;;4.19;92.16;100649.85;124573;1099;104188;-79
2024/03/20 08:07:36;;;;;;;5.00;3.57;;;;;;;4.13;91.87;100660.77;124785;1099;104357;-80
2024/03/20 08:10:13;;;;;;;4.40;3.10;;;;;;;3.99;91.97;100656.36;124981;1099;104345;-79
2024/03/20 08:12:45;;;;;;;4.80;3.03;;;;;;;3.92;91.97;100655.08;125006;1099;102737;-79
2024/03/20 08:15:22;;;;;;;5.27;3.10;;;;;;;3.84;91.55;100653.69;124890;1099;104245;-77
2024/03/20 08:17:57;;;;;;;7.07;2.97;;;;;;;3.84;92.52;100664.08;124754;1099;104376;-79
2024/03/20 08:20:40;;;;;;;5.90;3.20;;;;;;;3.78;92.38;100656.77;124519;1099;102962;-78
2024/03/20 08:23:28;;;;;;;5.43;3.53;;;;;;;3.76;92.00;100663.58;125023;1099;104242;-78
2024/03/20 08:26:01;;;;;;;8.37;4.53;;;;;;;3.80;92.23;100660.36;124608;1099;111460;-78
2024/03/20 08:28:34;;;;;;;6.33;3.70;;;;;;;3.86;91.95;100660.76;124823;1099;102099;-78
2024/03/20 08:31:15;;;;;;;6.40;3.80;;;;;;;3.87;92.39;100672.95;124891;1099;104307;-78
2024/03/20 08:33:58;;;;;;;6.23;3.27;;;;;;;3.83;91.69;100657.97;124592;1099;103259;-78
2024/03/20 08:36:44;;;;;;;5.00;3.20;;;;;;;3.76;91.74;100664.46;124754;1099;103366;-79
2024/03/20 08:39:23;;;;;;;4.13;3.03;;;;;;;3.70;91.87;100668.36;124946;1099;104248;-78
2024/03/20 08:41:57;;;;;;;4.47;3.10;;;;;;;3.60;91.91;100670.34;124778;1099;104270;-79
2024/03/20 08:44:36;;;;;;;6.13;3.77;;;;;;;3.56;92.09;100670.05;124973;1099;102001;-79
2024/03/20 08:47:14;;;;;;;7.73;3.80;;;;;;;3.50;91.58;100675.71;124691;1099;104223;-78
2024/03/20 08:49:45;;;;;;;6.27;3.50;;;;;;;3.42;92.44;100672.60;124675;1099;104172;-78
2024/03/20 08:52:18;;;;;;;6.47;3.50;;;;;;;3.34;92.87;100673.79;125992;1099;104172;-79
2024/03/20 08:54:53;;;;;;;5.87;3.30;;;;;;;3.26;92.41;100676.65;124891;1098;104166;-78
2024/03/20 08:57:24;;;;;;;6.07;3.20;;;;;;;3.12;92.24;100687.00;124929;1099;102226;-81
2024/03/20 08:59:57;;;;;;;5.70;3.50;;;;;;;2.99;92.03;100684.34;124896;1099;104317;-79
2024/03/20 09:02:33;;;;;;;6.27;3.60;;;;;;;2.92;92.43;100687.33;124819;1099;104325;-79
2024/03/20 09:05:06;;;;;;;8.50;4.57;;;;;;;2.83;92.01;100687.58;124760;1098;104313;-79
2024/03/20 09:07:40;;;;;;;9.27;4.43;;;;;;;2.67;91.65;100696.88;127063;1099;101749;-80
2024/03/20 09:10:12;;;;;;;9.30;4.50;;;;;;;2.53;91.74;100694.12;127063;1098;101910;-79
2024/03/20 09:12:46;;;;;;;9.10;4.37;;;;;;;2.39;91.03;100690.55;127016;1098;102585;-80
2024/03/20 09:15:18;;;;;;;9.60;4.72;;;;;;;2.25;91.26;100689.55;126018;1099;104175;-80
2024/03/20 09:17:52;;;;;;;7.97;4.27;;;;;;;2.11;91.57;100704.09;124741;1099;102880;-82
2024/03/20 09:20:30;;;;;;;7.90;4.07;;;;;;;1.93;90.52;100701.97;124983;1099;104245;-81
2024/03/20 09:23:07;;;;;;;8.80;4.73;;;;;;;1.82;91.57;100702.84;125769;1099;102278;-81
2024/03/20 09:25:39;;;;;;;8.43;4.50;;;;;;;1.71;91.25;100704.63;125824;1099;104299;-81
2024/03/20 09:28:14;;;;;;;10.13;5.57;;;;;;;1.67;91.59;100702.63;125717;1099;104341;-82
2024/03/20 09:30:45;;;;;;;10.07;5.10;;;;;;;1.61;91.75;100710.81;125728;1099;104618;-81
2024/03/20 09:33:17;;;;;;;12.47;4.53;;;;;;;1.60;91.55;100708.11;125774;1099;102529;-80
2024/03/20 09:35:49;;;;;;;13.77;6.23;;;;;;;1.58;91.80;100707.11;125765;1099;104437;-80
2024/03/20 09:38:22;;;;;;;15.53;6.40;;;;;;;1.53;91.98;100709.35;124516;1099;104245;-81
2024/03/20 09:40:59;;;;;;;13.57;6.17;;;;;;;1.50;92.04;100713.41;124476;1099;104415;-82
2024/03/20 09:43:32;;;;;;;13.73;6.67;;;;;;;1.51;91.87;100710.02;125553;1099;104185;-81
2024/03/20 09:46:05;;;;;;;14.90;7.17;;;;;;;1.48;91.30;100714.95;125950;1099;104248;-82
2024/03/20 09:48:39;;;;;;;17.83;8.03;;;;;;;1.48;91.99;100709.78;125882;1099;104418;-82
2024/03/20 09:51:09;;;;;;;;;;;;;;;1.48;91.76;100709.78;125876;1099;104261;-82
2024/03/20 09:53:55;;;;;;;19.17;8.30;;;;;;;1.47;92.16;100713.17;125699;1099;104222;-82
2024/03/20 09:56:29;;;;;;;18.83;9.00;;;;;;;1.43;91.91;100718.11;125887;1098;104155;-81
2024/03/20 09:59:07;;;;;;;18.83;9.23;;;;;;;1.40;92.47;100714.38;125741;1099;104242;-82
2024/03/20 10:01:45;;;;;;;19.50;9.40;;;;;;;1.41;92.49;100713.59;125961;1099;102754;-82
2024/03/20 10:04:17;;;;;;;20.67;10.23;;;;;;;1.40;92.45;100717.88;125864;1099;104108;-83
2024/03/20 10:06:52;;;;;;;22.33;10.53;;;;;;;1.41;92.47;100719.66;125539;1099;104191;-81
2024/03/20 10:09:29;;;;;;;27.00;12.45;;;;;;;1.42;92.94;100716.30;125143;1099;104303;-81
2024/03/20 10:12:05;;;;;;;21.17;10.50;;;;;;;1.41;92.74;100714.48;125432;1099;104191;-81
2024/03/20 10:14:39;;;;;;;27.27;12.95;;;;;;;1.42;92.32;100720.59;125971;1099;104679;-80
2024/03/20 10:17:22;;;;;;;26.93;13.30;;;;;;;1.43;92.87;100719.77;125446;1099;101932;-82
2024/03/20 10:19:56;;;;;;;27.03;13.80;;;;;;;1.44;93.33;100719.00;126077;1099;102620;-81
2024/03/20 10:22:30;;;;;;;25.00;13.63;;;;;;;1.44;92.87;100725.06;125734;1099;104342;-81
2024/03/20 10:25:13;;;;;;;26.60;14.10;;;;;;;1.52;93.01;100717.00;126139;1099;104178;-82
2024/03/20 10:27:50;;;;;;;26.37;13.77;;;;;;;1.56;92.57;100722.52;127098;1099;102770;-83
2024/03/20 10:30:27;;;;;;;27.27;14.00;;;;;;;1.60;93.26;100724.52;126786;1098;102771;-82
2024/03/20 10:33:02;;;;;;;27.23;14.77;;;;;;;1.60;92.97;100723.64;126949;1098;101739;-82
2024/03/20 10:35:53;;;;;;;28.63;15.37;;;;;;;1.63;93.86;100718.69;126904;1099;101627;-81
2024/03/20 10:38:29;;;;;;;25.43;13.67;;;;;;;1.65;93.37;100721.39;125929;1099;102874;-81
2024/03/20 10:41:04;;;;;;;28.47;15.13;;;;;;;1.71;92.91;100714.98;125807;1098;104223;-82
2024/03/20 10:43:41;;;;;;;26.57;14.70;;;;;;;1.81;93.37;100716.59;125562;1099;104369;-81
2024/03/20 10:46:21;;;;;;;28.73;15.10;;;;;;;1.80;93.81;100717.36;126055;1099;104223;-82
2024/03/20 10:48:55;;;;;;;29.50;14.90;;;;;;;1.78;93.36;100718.95;126224;1099;102984;-81
2024/03/20 10:51:27;;;;;;;27.77;15.00;;;;;;;1.75;94.14;100708.37;125732;1099;102219;-81
2024/03/20 10:54:07;;;;;;;29.63;14.93;;;;;;;1.69;93.60;100716.56;125930;1099;104252;-81
2024/03/20 10:56:46;;;;;;;31.43;16.77;;;;;;;1.69;94.13;100718.27;126074;1099;104318;-82
2024/03/20 10:59:19;;;;;;;32.30;16.70;;;;;;;1.73;94.33;100709.92;125888;1099;104201;-80
2024/03/20 11:02:05;;;;;;;28.17;15.53;;;;;;;1.75;94.19;100701.50;126015;1099;102091;-80
2024/03/20 11:04:51;;;;;;;30.70;16.95;;;;;;;1.84;94.32;100702.95;126163;1099;104089;-81
2024/03/20 11:07:36;;;;;;;33.73;17.30;;;;;;;1.92;94.23;100709.62;126191;1099;104188;-81
2024/03/20 11:10:23;;;;;;;33.95;17.65;;;;;;;1.87;94.39;100688.58;116818;1099;10001504;-82
2024/03/20 11:13:03;;;;;;;34.70;17.10;;;;;;;2.01;95.40;100705.12;125719;1099;101880;-82
2024/03/20 11:15:37;;;;;;;39.20;19.40;;;;;;;2.08;94.30;100691.81;125952;1099;102635;-82
2024/03/20 11:18:14;;;;;;;34.40;17.27;;;;;;;2.11;95.10;100691.14;126020;1099;104351;-83
2024/03/20 11:20:51;;;;;;;37.73;17.70;;;;;;;2.20;94.51;100691.81;117621;1098;10001299;-81
2024/03/20 11:23:27;;;;;;;39.50;20.37;;;;;;;2.22;95.20;100689.33;126181;1099;102986;-81
2024/03/20 11:25:59;;;;;;;36.07;18.83;;;;;;;2.30;95.14;100683.89;126228;1099;104581;-81
2024/03/20 11:28:36;;;;;;;38.10;19.73;;;;;;;2.34;94.95;100691.11;126269;1099;102323;-81
2024/03/20 11:31:10;;;;;;;40.07;19.53;;;;;;;2.39;95.33;100683.66;125610;1099;104281;-81
2024/03/20 11:33:43;;;;;;;34.67;17.85;;;;;;;2.42;95.42;100689.06;125538;1099;102040;-81